< < Back
Terminal Aerodrome Forecast


Current Version              Previous Versions:   1  2  3  4  5  6  7  8  9  

Terminal Aerodrome Forecast

452
FTUS44 KMRX 202320
TAFCHA
TAF
KCHA 202320Z 2100/2124 23005KT P6SM SCT050 BKN120
     FM210900 VRB03KT P6SM SKC
     FM211400 34010KT P6SM SCT050=



Latest METAR

418
SAUS80 KWBC 212000 RRB
MTRCHA
METAR KCHA 211953Z 34011KT 10SM FEW055 23/07 A2999 RMK AO2 SLP153
T02280067


USA.gov is the U.S. government's official web portal to all federal, state and local government web resources and services.